Time;durP1;ratioP1;P1;durP2;ratioP2;P2;SDS_P1;SDS_P2;PMS_P1;PMS_P2;Temp;Humidity;BMP_temperature;BMP_pressure;BME280_temperature;BME280_humidity;BME280_pressure;Samples;Min_cycle;Max_cycle;Signal;HPM_P1;HPM_P2
2022/07/05 00:01:17;;;;;;;3.45;3.10;;;;;;;17.56;66.62;95635.50;1787426;80;20965;-64
2022/07/05 00:03:44;;;;;;;4.33;3.08;;;;;;;17.41;68.65;95634.86;1787710;80;21040;-64
2022/07/05 00:06:11;;;;;;;4.78;2.62;;;;;;;17.37;67.73;95619.48;1787711;80;21052;-64
2022/07/05 00:08:39;;;;;;;4.30;2.87;;;;;;;17.37;67.73;95619.48;1787323;80;21013;-64
2022/07/05 00:11:06;;;;;;;3.75;2.80;;;;;;;17.43;67.61;95630.33;1787762;80;21044;-64
2022/07/05 00:13:33;;;;;;;3.25;2.52;;;;;;;17.43;68.54;95632.53;1787689;80;21515;-64
2022/07/05 00:15:59;;;;;;;6.47;3.00;;;;;;;17.43;68.54;95632.53;1795113;80;21009;-64
2022/07/05 00:18:26;;;;;;;3.52;2.33;;;;;;;17.50;69.12;95635.80;1796399;79;21029;-64
2022/07/05 00:20:53;;;;;;;4.62;2.80;;;;;;;17.48;69.21;95634.99;1796464;79;21089;-64
2022/07/05 00:23:19;;;;;;;3.85;2.70;;;;;;;17.48;68.53;95635.85;1796085;79;21005;-64
2022/07/05 00:25:46;;;;;;;6.08;2.60;;;;;;;17.49;69.32;95638.08;1796612;80;20946;-64
2022/07/05 00:28:14;;;;;;;3.02;2.55;;;;;;;17.51;68.22;95638.41;1796643;79;20985;-64
2022/07/05 00:30:42;;;;;;;3.52;2.62;;;;;;;17.58;68.01;95634.97;1796261;80;20978;-64
2022/07/05 00:33:08;;;;;;;2.83;2.62;;;;;;;17.56;67.56;95636.84;1796180;80;20996;-64
2022/07/05 00:35:35;;;;;;;3.10;2.80;;;;;;;17.53;68.13;95632.51;1796327;79;21052;-64
2022/07/05 00:38:02;;;;;;;3.37;2.85;;;;;;;17.54;68.09;95636.07;1796324;79;20986;-64
2022/07/05 00:40:29;;;;;;;4.62;2.65;;;;;;;17.52;68.20;95647.27;1796384;79;21061;-64
2022/07/05 00:42:56;;;;;;;3.37;2.87;;;;;;;17.52;68.20;95647.27;1765124;80;21023;-64
2022/07/05 00:45:22;;;;;;;3.00;2.70;;;;;;;17.51;68.19;95642.85;1796110;80;21041;-64
2022/07/05 00:47:49;;;;;;;4.33;3.20;;;;;;;17.50;69.43;95637.98;1796246;80;21053;-64
2022/07/05 00:50:15;;;;;;;5.17;3.15;;;;;;;17.50;68.62;95636.66;1795887;79;21016;-64
2022/07/05 00:52:42;;;;;;;6.60;3.08;;;;;;;17.52;68.50;95631.27;1796365;80;20993;-64
2022/07/05 00:55:09;;;;;;;4.80;3.52;;;;;;;17.59;68.53;95626.05;1765047;80;20973;-63
2022/07/05 00:57:36;;;;;;;4.37;2.92;;;;;;;17.58;69.23;95628.78;1796360;79;21029;-64
2022/07/05 01:00:06;;;;;;;4.37;3.12;;;;;;;17.49;68.35;95616.73;1796560;80;21005;-64
2022/07/05 01:02:33;;;;;;;3.40;3.10;;;;;;;17.47;68.78;95625.27;1796261;79;21037;-64
2022/07/05 01:05:00;;;;;;;6.50;3.30;;;;;;;17.50;68.71;95623.31;1796169;79;21002;-64
2022/07/05 01:07:27;;;;;;;3.40;3.10;;;;;;;17.43;69.73;95618.33;1796337;79;21033;-64
2022/07/05 01:09:54;;;;;;;3.40;3.10;;;;;;;17.37;69.58;95607.95;1795741;79;21024;-64
2022/07/05 01:12:22;;;;;;;3.35;3.05;;;;;;;17.43;69.24;95615.66;1796337;79;21426;-64
2022/07/05 01:14:49;;;;;;;4.70;3.50;;;;;;;17.40;70.00;95611.34;1796307;80;20985;-64
2022/07/05 01:17:17;;;;;;;4.85;3.10;;;;;;;17.38;69.45;95615.86;1795951;80;21045;-64
2022/07/05 01:19:44;;;;;;;4.03;2.90;;;;;;;17.36;70.39;95616.88;1795865;80;21009;-64
2022/07/05 01:22:20;;;;;;;4.33;2.70;;;;;;;17.31;70.18;95621.06;1796234;80;20958;-63
2022/07/05 01:24:49;;;;;;;2.80;2.60;;;;;;;17.25;70.88;95620.88;1796300;79;21494;-64
2022/07/05 01:27:19;;;;;;;3.40;2.85;;;;;;;17.29;69.97;95613.16;1796313;79;21471;-64
2022/07/05 01:29:47;;;;;;;2.67;2.47;;;;;;;17.30;70.26;95612.21;1796357;80;20969;-64
2022/07/05 01:32:14;;;;;;;4.55;2.75;;;;;;;17.37;70.84;95616.81;1795926;80;21008;-63
2022/07/05 01:34:42;;;;;;;6.03;3.00;;;;;;;17.32;70.25;95607.30;1796462;80;21004;-64
2022/07/05 01:37:10;;;;;;;3.50;2.95;;;;;;;17.41;69.67;95618.42;1796431;80;21408;-64
2022/07/05 01:39:37;;;;;;;4.87;3.12;;;;;;;17.48;69.11;95622.98;1796306;79;20981;-64
2022/07/05 01:42:06;;;;;;;3.92;2.70;;;;;;;17.48;69.11;95622.98;1796223;79;21475;-63
2022/07/05 01:44:32;;;;;;;4.03;2.83;;;;;;;17.38;69.97;95609.67;1796376;79;20966;-64
2022/07/05 01:47:04;;;;;;;2.70;2.50;;;;;;;17.31;70.25;95619.73;1795868;79;21040;-64
2022/07/05 01:49:36;;;;;;;4.58;2.75;;;;;;;17.34;70.13;95617.40;1796387;79;21041;-64
2022/07/05 01:52:10;;;;;;;3.10;2.80;;;;;;;17.32;70.55;95616.63;1795609;80;21009;-64
2022/07/05 01:54:39;;;;;;;6.15;2.50;;;;;;;17.46;69.50;95628.41;1796247;79;21032;-63
2022/07/05 01:57:07;;;;;;;3.62;2.70;;;;;;;17.46;69.50;95628.41;1796758;79;21483;-64
2022/07/05 01:59:35;;;;;;;5.37;2.87;;;;;;;17.49;68.58;95628.74;1796285;79;20977;-64
2022/07/05 02:02:03;;;;;;;3.05;2.55;;;;;;;17.37;68.49;95618.63;1796050;80;21020;-64
2022/07/05 02:04:31;;;;;;;3.50;2.62;;;;;;;17.29;68.85;95618.97;1796255;80;21507;-64
2022/07/05 02:06:58;;;;;;;3.27;2.92;;;;;;;17.18;68.80;95620.75;1795862;80;20978;-65
2022/07/05 02:09:25;;;;;;;3.05;2.85;;;;;;;17.15;69.85;95622.23;1795865;80;21554;-64
2022/07/05 02:11:52;;;;;;;3.27;2.80;;;;;;;17.10;69.39;95606.91;1796199;79;21049;-64
2022/07/05 02:14:19;;;;;;;3.67;2.85;;;;;;;17.10;69.39;95606.91;1796189;79;21080;-64
2022/07/05 02:16:46;;;;;;;3.65;2.75;;;;;;;17.08;71.06;95614.98;1796259;79;21527;-64
2022/07/05 02:19:13;;;;;;;3.30;2.80;;;;;;;17.08;70.15;95599.43;1796184;80;20978;-64
2022/07/05 02:21:41;;;;;;;3.05;2.75;;;;;;;17.10;70.49;95617.56;1796300;80;21029;-64
2022/07/05 02:24:10;;;;;;;3.50;2.77;;;;;;;17.08;69.99;95610.09;1796309;80;20981;-64
2022/07/05 02:26:38;;;;;;;3.60;3.30;;;;;;;17.04;70.08;95605.38;1795267;80;21013;-64
2022/07/05 02:29:05;;;;;;;3.22;2.92;;;;;;;16.97;70.87;95589.25;1796208;79;21036;-64
2022/07/05 02:31:33;;;;;;;3.00;2.80;;;;;;;16.96;71.88;95594.63;1796226;79;21025;-64
2022/07/05 02:34:00;;;;;;;4.42;2.55;;;;;;;16.98;72.46;95612.29;1796170;80;21005;-64
2022/07/05 02:36:26;;;;;;;3.05;2.75;;;;;;;16.98;72.46;95612.29;1796360;79;21028;-64
2022/07/05 02:38:53;;;;;;;4.03;2.80;;;;;;;16.95;72.79;95611.09;1765472;80;21029;-64
2022/07/05 02:41:20;;;;;;;5.90;2.95;;;;;;;16.92;71.21;95613.91;1796337;79;21021;-64
2022/07/05 02:43:49;;;;;;;5.53;2.27;;;;;;;16.92;71.21;95613.91;1796199;80;21040;-64
2022/07/05 02:46:17;;;;;;;3.67;2.83;;;;;;;16.89;71.12;95615.38;1796370;80;21471;-64
2022/07/05 02:48:44;;;;;;;3.47;2.72;;;;;;;16.94;71.16;95608.05;1796200;80;21028;-64
2022/07/05 02:51:10;;;;;;;6.92;3.10;;;;;;;16.94;71.16;95608.05;1796275;79;20993;-64
2022/07/05 02:53:38;;;;;;;3.42;3.05;;;;;;;17.08;70.52;95613.65;1796375;79;21036;-64
2022/07/05 02:56:07;;;;;;;4.80;4.40;;;;;;;17.06;70.31;95610.66;1796354;79;21009;-64
2022/07/05 02:58:33;;;;;;;3.30;2.92;;;;;;;17.03;71.35;95619.66;1796363;80;20997;-64
2022/07/05 03:01:00;;;;;;;5.37;2.85;;;;;;;17.01;71.03;95619.28;1796434;79;20982;-64
2022/07/05 03:03:28;;;;;;;2.92;2.52;;;;;;;16.99;70.94;95614.52;1796149;79;21001;-64
2022/07/05 03:05:55;;;;;;;4.05;3.10;;;;;;;16.92;71.36;95612.57;1796359;80;21627;-64
2022/07/05 03:08:22;;;;;;;3.92;3.00;;;;;;;16.94;71.63;95608.05;1765080;80;21490;-64
2022/07/05 03:10:49;;;;;;;9.90;3.52;;;;;;;17.01;70.93;95613.95;1796229;79;21013;-64
2022/07/05 03:13:16;;;;;;;5.28;3.17;;;;;;;17.01;70.93;95613.95;1765236;80;21009;-64
2022/07/05 03:15:43;;;;;;;2.80;2.60;;;;;;;17.00;71.12;95617.56;1787155;80;20978;-64
2022/07/05 03:18:10;;;;;;;4.22;3.33;;;;;;;16.94;71.57;95622.70;1777365;81;21132;-64
2022/07/05 03:20:37;;;;;;;5.97;3.50;;;;;;;16.94;71.57;95622.70;1777883;80;21507;-64
2022/07/05 03:23:04;;;;;;;5.25;2.90;;;;;;;16.99;72.58;95629.17;1778013;81;20994;-64
2022/07/05 03:25:33;;;;;;;4.22;3.02;;;;;;;16.99;72.58;95629.17;1776366;81;21045;-64
2022/07/05 03:28:00;;;;;;;5.30;3.17;;;;;;;17.00;72.23;95636.23;1777920;81;21006;-64
2022/07/05 03:30:27;;;;;;;3.72;3.17;;;;;;;16.96;71.58;95635.50;1778002;80;20982;-64
2022/07/05 03:32:54;;;;;;;4.58;4.05;;;;;;;16.98;71.69;95628.76;1777543;81;21074;-64
2022/07/05 03:35:22;;;;;;;6.50;4.22;;;;;;;17.04;72.89;95629.84;1777906;81;20985;-64
2022/07/05 03:37:49;;;;;;;3.98;3.50;;;;;;;17.07;72.39;95627.03;1777849;80;21002;-64
2022/07/05 03:40:17;;;;;;;4.90;3.20;;;;;;;17.07;72.39;95627.03;1777839;80;20967;-64
2022/07/05 03:42:44;;;;;;;4.40;4.00;;;;;;;17.20;71.55;95642.02;1777909;80;20982;-64
2022/07/05 03:45:11;;;;;;;5.90;4.75;;;;;;;17.17;72.57;95639.50;1778106;81;20943;-64
2022/07/05 03:47:38;;;;;;;4.35;3.95;;;;;;;17.23;72.71;95635.22;1777787;80;21045;-64
2022/07/05 03:50:07;;;;;;;8.63;6.87;;;;;;;17.26;73.03;95639.97;1734745;81;20970;-64
2022/07/05 03:52:34;;;;;;;10.00;7.03;;;;;;;17.34;72.59;95638.73;1777784;81;21511;-64
2022/07/05 03:55:01;;;;;;;10.55;8.80;;;;;;;17.43;72.18;95636.53;1777702;80;21045;-64
2022/07/05 03:57:28;;;;;;;7.95;7.00;;;;;;;17.54;71.53;95640.07;1777770;80;21120;-64
2022/07/05 03:59:55;;;;;;;6.45;5.40;;;;;;;17.63;72.05;95651.64;1777880;80;20974;-64
2022/07/05 04:02:22;;;;;;;11.40;6.70;;;;;;;17.71;72.03;95645.95;1777836;81;21006;-64
2022/07/05 04:15:40;;;;;;;9.48;5.60;;;;;;;19.01;69.03;95637.03;1860289;77;22508;-64
2022/07/05 04:18:07;;;;;;;9.88;6.00;;;;;;;18.81;69.70;95638.05;1832079;78;21135;-64
2022/07/05 04:20:36;;;;;;;5.95;5.33;;;;;;;18.84;69.94;95640.17;1831698;78;21083;-64
2022/07/05 04:23:04;;;;;;;5.87;4.92;;;;;;;18.88;69.46;95642.63;1832294;78;21068;-65
2022/07/05 04:25:31;;;;;;;5.72;4.75;;;;;;;18.98;68.68;95647.03;1831959;78;21161;-64
2022/07/05 04:28:05;;;;;;;5.40;4.42;;;;;;;19.07;67.82;95637.66;1831633;78;20987;-64
2022/07/05 04:30:33;;;;;;;6.08;4.53;;;;;;;19.16;67.42;95639.88;1832454;78;21011;-64
2022/07/05 04:33:00;;;;;;;5.78;4.53;;;;;;;19.24;66.89;95632.31;1832221;78;20980;-64
2022/07/05 04:35:27;;;;;;;6.30;4.47;;;;;;;19.31;66.42;95635.06;1831936;78;21481;-64
2022/07/05 04:37:54;;;;;;;8.10;4.17;;;;;;;19.40;66.59;95632.36;1832366;78;20979;-65
2022/07/05 04:40:21;;;;;;;6.00;4.30;;;;;;;19.43;66.10;95626.39;1832326;78;21016;-65
2022/07/05 04:42:47;;;;;;;6.08;4.12;;;;;;;19.54;66.25;95628.97;1832364;78;20984;-65
2022/07/05 04:45:15;;;;;;;4.50;4.10;;;;;;;19.61;66.15;95623.69;1832528;78;21000;-64
2022/07/05 04:47:42;;;;;;;8.23;4.40;;;;;;;19.71;66.80;95620.94;1832262;78;21457;-65
2022/07/05 04:50:09;;;;;;;4.78;4.15;;;;;;;19.81;66.50;95626.18;1832536;78;21039;-65
2022/07/05 04:52:36;;;;;;;4.92;4.37;;;;;;;19.89;66.40;95618.58;1832149;78;21035;-65
2022/07/05 04:55:04;;;;;;;6.17;4.30;;;;;;;19.97;66.50;95614.62;1832391;78;20984;-64
2022/07/05 04:57:39;;;;;;;4.72;4.12;;;;;;;20.09;66.14;95620.64;1832407;78;20976;-65
2022/07/05 05:00:10;;;;;;;9.35;5.03;;;;;;;20.20;65.89;95616.88;1796991;78;21047;-65
2022/07/05 05:02:37;;;;;;;5.08;4.28;;;;;;;20.31;65.51;95622.99;1831718;78;21063;-65
2022/07/05 05:05:05;;;;;;;7.62;4.55;;;;;;;20.44;64.94;95623.16;1832001;78;21023;-65
2022/07/05 05:07:32;;;;;;;4.95;4.47;;;;;;;20.54;64.01;95612.30;1832130;78;21433;-65
2022/07/05 05:10:00;;;;;;;7.75;3.90;;;;;;;20.63;64.08;95613.11;1832369;78;21016;-65
2022/07/05 05:12:26;;;;;;;6.90;4.08;;;;;;;20.73;62.83;95609.42;1832305;78;21023;-65
2022/07/05 05:14:53;;;;;;;8.95;4.15;;;;;;;20.84;62.95;95608.78;1831949;78;21015;-64
2022/07/05 05:17:20;;;;;;;6.08;4.05;;;;;;;20.96;62.75;95604.93;1832077;78;20979;-65
2022/07/05 05:19:47;;;;;;;7.33;4.50;;;;;;;21.08;62.86;95606.48;1832039;78;21000;-65
2022/07/05 05:22:13;;;;;;;11.40;4.55;;;;;;;21.21;62.56;95601.23;1831570;78;21055;-65
2022/07/05 05:24:40;;;;;;;6.83;3.70;;;;;;;21.32;61.76;95608.17;1831763;78;21823;-65
2022/07/05 05:27:07;;;;;;;5.95;3.72;;;;;;;21.45;60.80;95598.44;1831978;78;21000;-65
2022/07/05 05:29:33;;;;;;;7.53;3.95;;;;;;;21.59;60.29;95604.28;1831925;78;20964;-65
2022/07/05 05:32:00;;;;;;;8.35;4.03;;;;;;;21.71;58.84;95607.55;1831743;78;20991;-65
2022/07/05 05:34:27;;;;;;;18.25;4.20;;;;;;;21.86;59.57;95607.08;1831658;78;21036;-65
2022/07/05 05:36:54;;;;;;;4.78;3.72;;;;;;;22.00;59.55;95604.39;1831558;78;21007;-65
2022/07/05 05:39:21;;;;;;;3.60;3.27;;;;;;;22.15;59.60;95607.03;1831926;78;21015;-65
2022/07/05 05:41:47;;;;;;;9.23;4.20;;;;;;;22.28;57.89;95604.48;1831931;78;21497;-65
2022/07/05 05:44:14;;;;;;;4.72;3.42;;;;;;;22.40;57.66;95605.89;1831760;78;21015;-65
2022/07/05 05:46:41;;;;;;;5.90;3.92;;;;;;;22.56;58.36;95600.36;1831913;78;20999;-65
2022/07/05 05:49:07;;;;;;;5.53;3.80;;;;;;;22.72;57.64;95604.23;1831773;78;21024;-65
2022/07/05 05:51:34;;;;;;;6.05;3.72;;;;;;;22.88;57.72;95605.41;1831433;78;21012;-65
2022/07/05 05:54:01;;;;;;;4.62;3.72;;;;;;;23.05;57.48;95603.81;1831739;78;20971;-65
2022/07/05 05:56:28;;;;;;;5.10;3.95;;;;;;;23.20;57.49;95605.09;1831646;78;21055;-65
2022/07/05 05:58:54;;;;;;;10.78;4.15;;;;;;;23.34;57.25;95599.63;1831904;78;21000;-65
2022/07/05 06:01:21;;;;;;;11.68;4.03;;;;;;;23.51;57.13;95597.09;1831416;78;21024;-65
2022/07/05 06:03:48;;;;;;;7.45;3.60;;;;;;;23.65;56.38;95593.45;1831682;78;21511;-65
2022/07/05 06:06:14;;;;;;;8.30;3.67;;;;;;;23.78;56.37;95598.38;1831561;78;21031;-65
2022/07/05 06:08:41;;;;;;;6.58;3.62;;;;;;;23.93;55.99;95586.98;1831819;78;20960;-65
2022/07/05 06:11:08;;;;;;;6.53;3.87;;;;;;;24.08;55.45;95595.31;1831317;78;20988;-65
2022/07/05 06:13:34;;;;;;;8.03;3.37;;;;;;;24.21;53.52;95588.55;1831772;78;20968;-65
2022/07/05 06:16:01;;;;;;;6.90;3.62;;;;;;;24.37;52.76;95586.47;1834584;78;21019;-65
2022/07/05 06:18:28;;;;;;;4.12;3.60;;;;;;;24.54;52.08;95590.63;1835047;78;20976;-65
2022/07/05 06:20:54;;;;;;;6.55;3.30;;;;;;;24.69;51.50;95584.58;1835247;78;20991;-65
2022/07/05 06:23:21;;;;;;;6.50;3.70;;;;;;;24.87;51.13;95579.63;1835160;78;21027;-65
2022/07/05 06:25:47;;;;;;;5.45;3.40;;;;;;;25.04;51.54;95578.36;1835306;78;21003;-65
2022/07/05 06:28:15;;;;;;;7.17;3.70;;;;;;;25.18;50.94;95583.61;1835239;78;21453;-65
2022/07/05 06:30:42;;;;;;;5.08;3.45;;;;;;;25.31;51.24;95578.12;1834826;78;21015;-65
2022/07/05 06:33:09;;;;;;;12.70;3.58;;;;;;;25.51;51.08;95575.22;1835211;78;20964;-65
2022/07/05 06:35:36;;;;;;;3.95;3.10;;;;;;;25.68;49.71;95573.91;1834969;78;21015;-65
2022/07/05 06:38:09;;;;;;;9.55;3.08;;;;;;;25.72;50.70;95578.06;1835243;78;21442;-65
2022/07/05 06:40:41;;;;;;;5.33;2.90;;;;;;;25.87;50.60;95570.12;1835267;78;21505;-65
2022/07/05 06:43:12;;;;;;;8.25;2.92;;;;;;;26.01;49.19;95569.52;1835341;78;20987;-65
2022/07/05 06:45:41;;;;;;;9.45;3.47;;;;;;;26.19;49.03;95568.53;1832607;78;21077;-65
2022/07/05 06:48:11;;;;;;;4.97;3.08;;;;;;;26.37;49.08;95573.78;1835287;78;20979;-65
2022/07/05 06:50:41;;;;;;;11.05;3.40;;;;;;;26.46;47.16;95568.98;1835140;78;21030;-65
2022/07/05 06:53:09;;;;;;;14.87;3.83;;;;;;;26.60;48.07;95563.80;1835072;78;21012;-65
2022/07/05 06:55:36;;;;;;;14.43;3.90;;;;;;;26.76;46.88;95567.43;1835231;78;20957;-65
2022/07/05 06:58:08;;;;;;;10.58;3.62;;;;;;;26.89;45.69;95564.58;1835378;78;20975;-65
2022/07/05 07:00:36;;;;;;;9.85;3.45;;;;;;;27.04;46.04;95564.64;1835028;78;20972;-65
2022/07/05 07:03:03;;;;;;;4.67;2.65;;;;;;;27.15;43.04;95559.16;1835100;78;21020;-65
2022/07/05 07:05:29;;;;;;;4.60;3.00;;;;;;;27.12;41.45;95554.01;1835147;78;21473;-65
2022/07/05 07:10:42;;;;;;;6.08;3.30;;;;;;;27.36;41.30;95550.20;1835351;78;21054;-65
2022/07/05 07:13:08;;;;;;;6.55;3.10;;;;;;;27.57;41.34;95552.43;1835319;78;21000;-65
2022/07/05 07:15:37;;;;;;;5.17;2.80;;;;;;;27.77;40.51;95549.80;1832373;78;21059;-65
2022/07/05 07:18:04;;;;;;;3.90;3.00;;;;;;;27.94;40.58;95550.56;1831465;78;21011;-65
2022/07/05 07:20:31;;;;;;;5.45;3.25;;;;;;;28.11;39.47;95541.44;1831710;78;21043;-65
2022/07/05 07:22:58;;;;;;;5.35;3.17;;;;;;;28.24;40.09;95540.19;1831219;78;21043;-65
2022/07/05 07:25:25;;;;;;;4.72;3.00;;;;;;;28.37;39.38;95533.66;1831480;78;21046;-65
2022/07/05 07:27:55;;;;;;;9.05;3.35;;;;;;;28.47;39.24;95534.06;1831600;78;21004;-65
2022/07/05 07:30:26;;;;;;;4.80;3.17;;;;;;;28.56;39.10;95533.73;1831752;78;20976;-65
2022/07/05 07:32:53;;;;;;;10.53;3.50;;;;;;;28.68;39.21;95527.19;1831748;78;21051;-65
2022/07/05 07:35:21;;;;;;;4.58;3.05;;;;;;;28.85;39.21;95528.35;1831320;78;21536;-65
2022/07/05 07:37:48;;;;;;;5.50;3.10;;;;;;;28.97;37.83;95524.12;1831255;78;21003;-65
2022/07/05 07:40:15;;;;;;;4.60;2.90;;;;;;;29.09;38.52;95526.58;1831652;78;21003;-65
2022/07/05 07:42:41;;;;;;;4.08;2.90;;;;;;;29.18;37.14;95528.95;1831475;78;21050;-65
2022/07/05 07:45:09;;;;;;;7.03;3.20;;;;;;;29.27;37.70;95527.22;1831663;78;20968;-65
2022/07/05 07:47:37;;;;;;;5.10;3.37;;;;;;;29.40;37.32;95527.76;1832176;78;21007;-65
2022/07/05 07:50:06;;;;;;;5.67;3.35;;;;;;;29.52;37.27;95523.02;1831497;78;21485;-65
2022/07/05 07:52:33;;;;;;;3.98;2.65;;;;;;;29.66;37.37;95528.04;1831563;78;21000;-65
2022/07/05 07:55:01;;;;;;;4.40;3.02;;;;;;;29.76;34.90;95521.19;1831811;78;21520;-65
2022/07/05 07:57:28;;;;;;;5.42;2.98;;;;;;;29.88;35.98;95520.51;1831726;78;21467;-65
2022/07/05 07:59:55;;;;;;;3.98;3.00;;;;;;;30.01;35.25;95516.94;1831779;78;21509;-65
2022/07/05 08:02:22;;;;;;;4.05;2.80;;;;;;;30.09;35.14;95518.44;1831659;78;21473;-65
2022/07/05 08:04:50;;;;;;;5.87;2.98;;;;;;;30.24;35.66;95526.99;1831436;78;20992;-65
2022/07/05 08:07:19;;;;;;;3.12;2.90;;;;;;;30.38;34.99;95516.94;1831469;78;21034;-65
2022/07/05 08:09:46;;;;;;;5.45;3.00;;;;;;;30.45;33.21;95516.34;1831348;78;21012;-65
2022/07/05 08:12:13;;;;;;;6.85;2.83;;;;;;;30.46;32.75;95512.09;1831700;78;21492;-65
2022/07/05 08:14:40;;;;;;;3.33;3.02;;;;;;;30.55;33.13;95513.05;1831640;78;21666;-65
2022/07/05 08:17:09;;;;;;;5.85;3.20;;;;;;;30.65;31.85;95517.93;1831540;78;21504;-65
2022/07/05 08:22:22;;;;;;;4.97;2.90;;;;;;;30.84;31.56;95511.50;1831585;78;21446;-65
2022/07/05 08:24:50;;;;;;;3.25;2.50;;;;;;;31.00;31.49;95517.13;1831433;78;21054;-65
2022/07/05 08:27:16;;;;;;;4.33;2.70;;;;;;;31.11;30.88;95509.72;1831694;78;21037;-65
2022/07/05 08:29:44;;;;;;;4.53;2.85;;;;;;;31.23;30.89;95507.95;1831327;78;21092;-65
2022/07/05 08:32:11;;;;;;;5.58;2.85;;;;;;;31.33;30.57;95507.02;1831485;78;21038;-65
2022/07/05 08:34:39;;;;;;;5.08;3.40;;;;;;;31.48;31.76;95508.19;1831881;78;21004;-65
2022/07/05 08:37:06;;;;;;;6.60;2.75;;;;;;;31.63;30.08;95495.67;1831607;78;20977;-65
2022/07/05 08:39:34;;;;;;;2.27;2.08;;;;;;;31.80;29.75;95493.91;1831507;78;21000;-65
2022/07/05 08:42:02;;;;;;;4.25;2.20;;;;;;;31.95;27.20;95492.80;1831644;78;21031;-65
2022/07/05 08:44:34;;;;;;;4.62;2.30;;;;;;;32.06;28.17;95493.89;1831637;78;21051;-65
2022/07/05 08:47:03;;;;;;;;;;;;;;;32.12;25.36;95491.02;1834296;78;21027;-65
2022/07/05 08:49:33;;;;;;;3.17;2.30;;;;;;;32.21;26.73;95487.31;1831802;78;20120;-65
2022/07/05 08:52:03;;;;;;;2.45;2.22;;;;;;;32.31;27.07;95485.81;1831699;78;21055;-65
2022/07/05 08:54:31;;;;;;;3.55;2.10;;;;;;;32.47;26.86;95486.38;1831868;78;21004;-65
2022/07/05 08:56:58;;;;;;;6.05;2.87;;;;;;;32.60;25.80;95490.02;1831736;78;21051;-65
2022/07/05 08:59:25;;;;;;;4.60;2.17;;;;;;;32.73;26.54;95489.87;1831942;78;20995;-65
2022/07/05 09:01:54;;;;;;;5.67;2.50;;;;;;;32.84;26.13;95479.67;1831836;78;21004;-65
2022/07/05 09:04:22;;;;;;;4.90;2.60;;;;;;;32.95;25.43;95482.91;1831832;78;21063;-65
2022/07/05 09:06:50;;;;;;;5.00;2.35;;;;;;;33.06;25.17;95485.00;1831866;78;20987;-65
2022/07/05 09:09:18;;;;;;;3.33;2.20;;;;;;;33.08;24.29;95480.22;1831591;78;21524;-65
2022/07/05 09:11:48;;;;;;;4.62;2.70;;;;;;;33.01;24.41;95481.37;1831964;78;20984;-65
2022/07/05 09:14:23;;;;;;;3.50;2.33;;;;;;;33.11;24.97;95482.13;1831655;78;20988;-65
2022/07/05 09:16:50;;;;;;;5.78;2.62;;;;;;;33.31;25.03;95477.66;1831156;78;21083;-65
2022/07/05 09:19:17;;;;;;;3.65;2.70;;;;;;;33.24;24.00;95480.24;1831678;78;21007;-65
2022/07/05 09:21:44;;;;;;;3.42;2.50;;;;;;;33.44;24.23;95479.38;1831635;78;21023;-65
2022/07/05 09:24:12;;;;;;;4.62;2.60;;;;;;;33.56;24.09;95477.15;1831308;78;21032;-65
2022/07/05 09:26:47;;;;;;;5.28;2.65;;;;;;;33.68;23.87;95468.92;1831753;78;20948;-65
2022/07/05 09:29:18;;;;;;;6.47;2.30;;;;;;;33.80;24.42;95466.16;1831920;78;20999;-65
2022/07/05 09:31:49;;;;;;;4.03;2.00;;;;;;;33.90;22.99;95462.38;1831601;78;21040;-65
2022/07/05 09:34:19;;;;;;;2.95;2.15;;;;;;;33.92;22.07;95462.55;1831863;78;21007;-65
2022/07/05 09:37:01;;;;;;;3.37;2.30;;;;;;;34.03;23.77;95458.56;1831756;78;20979;-65
2022/07/05 09:39:38;;;;;;;2.33;2.12;;;;;;;34.11;22.19;95460.45;1831604;78;21004;-65
2022/07/05 09:42:21;;;;;;;2.67;2.20;;;;;;;34.25;22.66;95459.19;1831787;78;20979;-65
2022/07/05 09:44:55;;;;;;;3.98;2.45;;;;;;;34.28;20.45;95451.66;1831668;78;21028;-65
2022/07/05 09:47:29;;;;;;;3.65;2.27;;;;;;;34.41;20.94;95457.41;1831762;78;21050;-65
2022/07/05 09:50:04;;;;;;;3.85;2.30;;;;;;;34.12;20.20;95454.81;1831677;78;21051;-65
2022/07/05 09:52:39;;;;;;;2.17;2.00;;;;;;;33.93;20.64;95456.55;1830784;78;21003;-65
2022/07/05 09:55:11;;;;;;;2.75;2.30;;;;;;;34.04;21.04;95447.94;1830554;78;20961;-65
2022/07/05 09:57:40;;;;;;;2.77;2.47;;;;;;;34.38;21.77;95450.92;1830529;78;21039;-65
2022/07/05 10:00:12;;;;;;;4.45;2.12;;;;;;;34.54;19.50;95452.70;1831755;78;21249;-65
2022/07/05 10:02:42;;;;;;;2.72;2.20;;;;;;;34.34;19.09;95453.14;1831786;78;20964;-65
2022/07/05 10:05:16;;;;;;;3.60;1.80;;;;;;;34.55;20.11;95453.91;1832092;78;21489;-65
2022/07/05 10:07:49;;;;;;;3.58;2.20;;;;;;;34.68;19.21;95447.34;1831691;78;21449;-65
2022/07/05 10:10:19;;;;;;;2.30;2.10;;;;;;;34.87;19.87;95443.26;1831559;78;21012;-65
2022/07/05 10:12:48;;;;;;;4.33;2.20;;;;;;;35.03;19.38;95436.82;1831736;78;20972;-65
2022/07/05 10:15:18;;;;;;;4.70;2.00;;;;;;;35.19;20.06;95439.12;1831647;78;21067;-65
2022/07/05 10:17:58;;;;;;;3.50;2.15;;;;;;;35.40;20.38;95431.55;1831705;78;20999;-65
2022/07/05 10:20:43;;;;;;;2.95;2.20;;;;;;;35.65;20.65;95436.30;1831797;78;20988;-65
2022/07/05 10:23:19;;;;;;;2.37;2.20;;;;;;;35.86;19.67;95432.31;1831264;78;21008;-65
2022/07/05 10:25:49;;;;;;;3.05;2.60;;;;;;;36.02;19.63;95424.92;1831775;78;20988;-65
2022/07/05 10:28:19;;;;;;;3.90;2.10;;;;;;;36.15;19.29;95428.71;1831773;78;20988;-65
2022/07/05 10:30:49;;;;;;;3.37;2.20;;;;;;;35.98;16.90;95423.91;1830993;78;20972;-65
2022/07/05 10:33:26;;;;;;;3.10;2.60;;;;;;;35.74;18.75;95433.81;1831719;78;20991;-65
2022/07/05 10:35:48;;;;;;;3.30;2.37;;;;;;;35.48;18.40;95423.23;1829478;78;21087;-65
2022/07/05 10:38:15;;;;;;;4.00;2.37;;;;;;;35.40;18.15;95420.58;1831554;78;21449;-65
2022/07/05 10:40:50;;;;;;;3.62;2.15;;;;;;;34.85;17.97;95424.80;1831675;78;20980;-65
2022/07/05 10:43:17;;;;;;;2.98;2.20;;;;;;;35.03;18.72;95418.13;1831694;78;20956;-65
2022/07/05 10:45:49;;;;;;;3.45;2.10;;;;;;;35.38;19.37;95417.16;1831745;78;21489;-65
2022/07/05 10:48:20;;;;;;;4.75;2.08;;;;;;;35.63;19.87;95414.52;1831109;78;21080;-65
2022/07/05 10:50:57;;;;;;;3.52;2.35;;;;;;;35.38;19.29;95408.93;1831801;78;21004;-65
2022/07/05 10:53:32;;;;;;;2.70;2.00;;;;;;;35.19;18.30;95415.28;1831637;78;21063;-65
2022/07/05 10:56:04;;;;;;;2.50;2.30;;;;;;;35.31;18.32;95404.20;1831083;78;21059;-65
2022/07/05 10:58:37;;;;;;;2.95;2.10;;;;;;;35.61;17.62;95407.52;1827998;78;21015;-65
2022/07/05 11:01:22;;;;;;;2.25;2.05;;;;;;;35.47;18.25;95405.08;1831798;78;21030;-65
2022/07/05 11:04:03;;;;;;;4.28;2.00;;;;;;;35.64;18.09;95405.80;1831732;78;21492;-65
2022/07/05 11:06:41;;;;;;;3.10;2.12;;;;;;;35.44;18.04;95406.30;1803157;78;21012;-65
2022/07/05 11:09:15;;;;;;;3.45;2.22;;;;;;;35.12;18.53;95415.69;1831519;78;21044;-65
2022/07/05 11:11:55;;;;;;;3.17;2.60;;;;;;;35.29;19.10;95396.67;1831863;78;21000;-65
2022/07/05 11:14:29;;;;;;;2.35;2.12;;;;;;;35.78;19.60;95388.98;1831400;78;20968;-65
2022/07/05 11:17:16;;;;;;;6.65;2.58;;;;;;;36.12;18.96;95393.92;1831685;78;21024;-65
2022/07/05 11:20:06;;;;;;;2.30;2.10;;;;;;;36.20;18.77;95390.22;1831582;78;21011;-65
2022/07/05 11:22:38;;;;;;;2.20;2.10;;;;;;;36.52;18.88;95389.76;1831938;78;21008;-65
2022/07/05 11:25:07;;;;;;;2.47;2.17;;;;;;;36.65;18.47;95387.70;1831336;78;21016;-65
2022/07/05 11:27:34;;;;;;;3.35;2.33;;;;;;;36.24;19.07;95393.77;1831519;78;21441;-65
2022/07/05 11:30:02;;;;;;;2.55;2.10;;;;;;;35.70;17.90;95399.54;1831441;78;21107;-65
2022/07/05 11:32:34;;;;;;;2.45;2.08;;;;;;;35.48;18.33;95393.05;1831612;78;21068;-65
2022/07/05 11:35:17;;;;;;;;;;;;;;;35.59;18.36;95393.16;1834325;78;21004;-65
2022/07/05 11:38:07;;;;;;;2.50;2.27;;;;;;;35.38;16.86;95385.61;1831869;78;20129;-65
2022/07/05 11:40:37;;;;;;;2.33;2.08;;;;;;;35.64;18.47;95381.09;1831304;78;21501;-65
2022/07/05 11:43:06;;;;;;;4.20;2.10;;;;;;;36.04;18.30;95383.87;1831643;78;20999;-65
2022/07/05 11:45:34;;;;;;;2.60;2.35;;;;;;;36.10;18.17;95374.03;1831568;78;21000;-65
2022/07/05 11:48:03;;;;;;;2.50;1.87;;;;;;;36.40;17.80;95374.81;1831645;78;20987;-65
2022/07/05 11:50:33;;;;;;;5.28;1.80;;;;;;;36.47;18.22;95370.25;1831699;78;21023;-65
2022/07/05 11:53:01;;;;;;;3.15;2.00;;;;;;;36.96;18.40;95370.87;1831742;78;20980;-65
2022/07/05 11:55:30;;;;;;;2.27;2.08;;;;;;;37.23;17.33;95358.23;1831309;78;21434;-65
2022/07/05 11:57:58;;;;;;;2.12;2.00;;;;;;;37.56;17.83;95358.18;1831666;78;20952;-65